createdAt,value
2017-12-26T00:00:02.782Z,-0.4
2017-12-26T00:15:03.547Z,-0.4
2017-12-26T00:30:03.177Z,-0.6
2017-12-26T00:45:27.704Z,-0.7
2017-12-26T01:00:03.204Z,-1.1
2017-12-26T01:15:23.301Z,-1.2
2017-12-26T01:30:02.832Z,-1.2
2017-12-26T01:45:03.166Z,-0.9
2017-12-26T02:00:09.588Z,-0.9
2017-12-26T02:45:35.670Z,-1.1
2017-12-26T03:00:04.598Z,-1.4
2017-12-26T03:15:03.633Z,-1.5
2017-12-26T03:30:03.687Z,-1.4
2017-12-26T03:45:03.619Z,-1.4
2017-12-26T04:00:03.105Z,-1.2
2017-12-26T04:15:02.875Z,-1.5
2017-12-26T04:30:02.322Z,-1.7
2017-12-26T04:45:02.860Z,-1.6
2017-12-26T05:00:03.422Z,-1.7
2017-12-26T05:15:03.490Z,-1.7
2017-12-26T05:30:03.011Z,-1.6
2017-12-26T05:45:52.975Z,-1.7
2017-12-26T06:00:03.658Z,-1.8
2017-12-26T06:15:03.150Z,-1.8
2017-12-26T06:30:13.549Z,-1.7
2017-12-26T06:45:03.120Z,-2.2
2017-12-26T07:00:26.515Z,-2.1
2017-12-26T07:15:07.030Z,-1.9
2017-12-26T07:30:35.996Z,-2.1
2017-12-26T07:45:18.938Z,-1.7
2017-12-26T08:00:03.840Z,-1.8
2017-12-26T08:15:05.645Z,-1.5
2017-12-26T08:30:03.188Z,-1.3
2017-12-26T08:45:49.113Z,-1.1
2017-12-26T09:15:04.167Z,-0.9
2017-12-26T09:30:09.497Z,-1
2017-12-26T09:45:03.560Z,-0.9
2017-12-26T10:00:51.283Z,-0.1
2017-12-26T10:15:03.013Z,0.4
2017-12-26T10:30:02.423Z,0.6
2017-12-26T10:45:03.180Z,1
2017-12-26T11:00:57.011Z,1.5
2017-12-26T11:15:02.369Z,1.6
2017-12-26T11:30:23.919Z,1.8
2017-12-26T12:00:26.139Z,1.9
2017-12-26T12:15:02.726Z,1.7
2017-12-26T12:30:03.280Z,1.8
2017-12-26T12:45:03.781Z,2.1
2017-12-26T13:15:04.275Z,2.4
2017-12-26T13:45:52.983Z,3.7
2017-12-26T14:00:02.752Z,3.9
2017-12-26T14:15:05.275Z,3.8
2017-12-26T14:45:13.214Z,3.8
2017-12-26T15:00:13.254Z,3.4
2017-12-26T15:15:02.829Z,2.9
2017-12-26T15:30:05.841Z,2.4
2017-12-26T15:45:03.511Z,1.6
2017-12-26T16:00:02.969Z,1.4
2017-12-26T16:15:02.821Z,1.3
2017-12-26T16:30:03.590Z,1.3
2017-12-26T16:45:40.540Z,1.2
2017-12-26T17:01:32.268Z,1.2
2017-12-26T17:15:02.834Z,1
2017-12-26T17:30:17.203Z,0.9
2017-12-26T18:00:02.950Z,0.5
2017-12-26T18:15:05.911Z,0.4
2017-12-26T18:30:03.001Z,0.1
2017-12-26T18:45:37.525Z,-0.2
2017-12-26T19:15:02.686Z,-0.2
2017-12-26T19:30:30.730Z,-0.4
2017-12-26T19:45:04.790Z,-0.4
2017-12-26T20:00:08.365Z,-0.7
2017-12-26T20:15:03.328Z,-0.8
2017-12-26T20:45:04.403Z,-1.1
2017-12-26T21:01:36.909Z,-1.1
2017-12-26T21:15:03.346Z,-1.1
2017-12-26T21:30:03.450Z,-1.3
2017-12-26T21:45:03.164Z,-1.6
2017-12-26T22:00:28.483Z,-1.7
2017-12-26T22:15:03.288Z,-1.4
2017-12-26T22:30:02.675Z,-1.6
2017-12-26T22:45:03.512Z,-1.9
2017-12-26T23:00:03.556Z,-1.9
2017-12-26T23:30:32.573Z,-2.1
2017-12-26T23:46:35.897Z,-2.1
